Time;durP1;ratioP1;P1;durP2;ratioP2;P2;SDS_P1;SDS_P2;PMS_P1;PMS_P2;Temp;Humidity;BMP_temperature;BMP_pressure;BME280_temperature;BME280_humidity;BME280_pressure;Samples;Min_cycle;Max_cycle;Signal;HPM_P1;HPM_P2
2021/06/27 00:01:06;;;;;;;9.60;8.70;;;18.10;99.90;;;;;;5073163;28;21040;-70
2021/06/27 00:03:53;;;;;;;12.13;9.10;;;18.10;99.90;;;;;;5089240;28;20844;-70
2021/06/27 00:06:38;;;;;;;11.03;9.73;;;18.20;99.90;;;;;;5092817;28;20468;-71
2021/06/27 00:09:27;;;;;;;10.10;9.10;;;18.10;99.90;;;;;;5077543;28;20823;-71
2021/06/27 00:12:13;;;;;;;11.67;10.07;;;18.10;99.90;;;;;;5081678;28;20430;-70
2021/06/27 00:14:59;;;;;;;11.10;9.90;;;18.10;99.90;;;;;;5092681;28;20441;-71
2021/06/27 00:17:45;;;;;;;15.90;9.73;;;18.10;99.90;;;;;;5086378;28;20454;-70
2021/06/27 00:20:32;;;;;;;12.47;9.30;;;18.10;99.90;;;;;;5075135;28;20450;-70
2021/06/27 00:23:20;;;;;;;11.80;8.50;;;18.20;99.90;;;;;;5092237;28;20438;-70
2021/06/27 00:26:10;;;;;;;10.60;8.90;;;18.10;99.90;;;;;;5092163;28;20890;-70
2021/06/27 00:28:55;;;;;;;12.80;8.60;;;18.10;99.90;;;;;;5075981;28;20819;-71
2021/06/27 00:31:41;;;;;;;16.43;8.50;;;18.00;99.90;;;;;;5092257;28;20425;-71
2021/06/27 00:34:27;;;;;;;8.80;8.00;;;18.10;99.90;;;;;;5072493;28;20392;-71
2021/06/27 00:37:12;;;;;;;12.53;8.60;;;17.90;99.90;;;;;;5074368;28;20487;-70
2021/06/27 00:39:58;;;;;;;13.23;9.90;;;17.90;99.90;;;;;;5087603;28;20436;-71
2021/06/27 00:42:45;;;;;;;10.53;8.63;;;18.00;99.90;;;;;;5085263;28;20553;-70
2021/06/27 00:45:31;;;;;;;11.13;8.73;;;18.00;99.90;;;;;;5092161;28;20453;-70
2021/06/27 00:48:17;;;;;;;15.67;9.50;;;18.00;99.90;;;;;;5081612;28;20463;-70
2021/06/27 00:51:02;;;;;;;14.30;9.53;;;17.90;99.90;;;;;;5072102;28;20511;-70
2021/06/27 00:53:49;;;;;;;13.70;8.60;;;17.90;99.90;;;;;;5086265;28;20548;-71
2021/06/27 00:56:35;;;;;;;11.13;9.20;;;17.80;99.90;;;;;;5090705;28;20395;-70
2021/06/27 00:59:22;;;;;;;16.50;8.63;;;17.80;99.90;;;;;;5072602;28;20457;-71
2021/06/27 01:02:08;;;;;;;9.47;8.47;;;17.90;99.90;;;;;;5071861;28;20494;-71
2021/06/27 01:04:54;;;;;;;19.07;9.00;;;17.80;99.90;;;;;;5088095;28;20445;-70
2021/06/27 01:07:40;;;;;;;15.27;9.00;;;17.70;99.90;;;;;;5079465;28;20462;-71
2021/06/27 01:10:25;;;;;;;10.07;9.07;;;17.70;99.90;;;;;;5083890;28;20827;-71
2021/06/27 01:13:11;;;;;;;16.93;9.07;;;17.70;99.90;;;;;;5079335;28;20920;-71
2021/06/27 01:15:58;;;;;;;10.23;8.27;;;17.70;99.90;;;;;;5083009;28;20499;-71
2021/06/27 01:18:44;;;;;;;18.53;9.37;;;17.80;99.90;;;;;;5083680;28;20428;-71
2021/06/27 01:21:31;;;;;;;16.80;8.53;;;17.80;99.90;;;;;;5085708;28;20450;-71
2021/06/27 01:24:17;;;;;;;13.87;9.50;;;17.80;99.90;;;;;;5076925;28;20491;-71
2021/06/27 01:27:03;;;;;;;9.43;8.50;;;17.60;99.90;;;;;;5090043;28;20477;-71
2021/06/27 01:29:48;;;;;;;13.20;7.63;;;17.70;99.90;;;;;;5079890;28;20420;-71
2021/06/27 01:32:34;;;;;;;12.03;9.10;;;17.70;99.90;;;;;;5080961;28;20963;-71
2021/06/27 01:35:22;;;;;;;12.37;9.50;;;17.60;99.90;;;;;;5084093;28;20452;-70
2021/06/27 01:38:11;;;;;;;13.50;9.67;;;17.60;99.90;;;;;;5085602;28;20442;-70
2021/06/27 01:40:56;;;;;;;12.70;9.20;;;17.60;99.90;;;;;;5083613;28;20420;-71
2021/06/27 01:43:42;;;;;;;13.40;8.63;;;17.70;99.90;;;;;;5083394;28;20421;-71
2021/06/27 01:46:28;;;;;;;12.20;9.13;;;17.70;99.90;;;;;;5077678;28;20474;-71
2021/06/27 01:49:14;;;;;;;9.73;8.30;;;17.70;99.90;;;;;;5083292;28;20466;-71
2021/06/27 01:51:59;;;;;;;11.67;8.90;;;17.60;99.90;;;;;;5083007;28;20465;-71
2021/06/27 01:54:47;;;;;;;11.50;9.30;;;17.60;99.90;;;;;;5076019;28;20396;-71
2021/06/27 01:57:33;;;;;;;8.50;7.67;;;17.50;99.90;;;;;;5078989;28;20429;-71
2021/06/27 02:00:19;;;;;;;12.60;8.90;;;17.60;99.90;;;;;;5080292;28;20555;-71
2021/06/27 02:03:06;;;;;;;14.20;9.50;;;17.60;99.90;;;;;;5082639;28;20520;-71
2021/06/27 02:05:52;;;;;;;14.70;9.30;;;17.60;99.90;;;;;;5088728;28;20449;-71
2021/06/27 02:08:40;;;;;;;9.43;8.53;;;17.60;99.90;;;;;;5083477;28;20503;-71
2021/06/27 02:11:28;;;;;;;10.03;7.87;;;17.70;99.90;;;;;;5093779;28;20510;-71
2021/06/27 02:14:14;;;;;;;12.47;8.80;;;17.70;99.90;;;;;;5085402;28;20438;-71
2021/06/27 02:16:59;;;;;;;12.63;8.30;;;17.70;99.90;;;;;;5083670;28;20446;-71
2021/06/27 02:19:53;;;;;;;10.60;9.50;;;17.70;99.90;;;;;;5085437;28;20465;-70
2021/06/27 02:22:39;;;;;;;10.30;8.30;;;17.70;99.90;;;;;;5084134;28;20436;-70
2021/06/27 02:25:25;;;;;;;11.80;8.70;;;17.80;99.90;;;;;;5083926;28;20584;-70
2021/06/27 02:28:12;;;;;;;12.47;7.80;;;17.80;99.90;;;;;;5082362;28;20472;-71
2021/06/27 02:30:58;;;;;;;9.43;8.50;;;17.80;99.90;;;;;;5087530;28;20962;-71
2021/06/27 02:33:44;;;;;;;13.63;8.27;;;17.90;99.90;;;;;;5083173;28;20482;-71
2021/06/27 02:36:30;;;;;;;13.13;8.60;;;17.90;99.90;;;;;;5087564;28;20604;-71
2021/06/27 02:39:16;;;;;;;8.93;8.03;;;17.90;99.90;;;;;;5085870;28;20482;-71
2021/06/27 02:42:01;;;;;;;9.90;9.00;;;17.70;99.90;;;;;;5085050;28;20446;-71
2021/06/27 02:44:48;;;;;;;17.47;8.83;;;17.80;99.90;;;;;;5081752;28;20457;-71
2021/06/27 02:47:36;;;;;;;10.40;8.00;;;17.80;99.90;;;;;;5080783;28;20470;-71
2021/06/27 02:50:21;;;;;;;10.50;8.20;;;17.90;99.90;;;;;;5086468;28;20540;-71
2021/06/27 02:53:09;;;;;;;12.10;8.83;;;17.80;99.90;;;;;;5087378;28;20544;-71
2021/06/27 02:56:07;;;;;;;7.80;7.10;;;17.80;99.90;;;;;;5087528;28;20812;-71
2021/06/27 02:58:53;;;;;;;10.23;8.43;;;17.90;99.90;;;;;;5086650;28;21025;-71
2021/06/27 03:01:40;;;;;;;11.37;8.63;;;17.80;99.90;;;;;;5082078;28;21005;-71
2021/06/27 03:04:26;;;;;;;12.37;8.43;;;17.70;99.90;;;;;;5081409;28;20506;-71
2021/06/27 03:07:11;;;;;;;10.80;7.80;;;17.70;99.90;;;;;;5085161;28;21121;-71
2021/06/27 03:09:57;;;;;;;11.00;8.17;;;17.80;99.90;;;;;;5083649;28;20522;-71
2021/06/27 03:12:44;;;;;;;9.60;8.60;;;17.70;99.90;;;;;;5079094;28;20515;-70
2021/06/27 03:15:29;;;;;;;9.10;7.53;;;17.60;99.90;;;;;;5085018;28;20424;-71
2021/06/27 03:18:16;;;;;;;8.40;7.63;;;17.60;99.90;;;;;;5082280;28;20451;-70
2021/06/27 03:21:02;;;;;;;12.23;8.53;;;17.60;99.90;;;;;;5093066;28;20433;-71
2021/06/27 03:23:48;;;;;;;11.43;7.30;;;17.60;99.90;;;;;;5084618;28;20521;-71
2021/06/27 03:26:33;;;;;;;12.40;8.20;;;17.50;99.90;;;;;;5082601;28;20596;-71
2021/06/27 03:29:19;;;;;;;8.93;8.00;;;17.50;99.90;;;;;;5083540;28;20588;-70
2021/06/27 03:32:06;;;;;;;9.67;7.87;;;17.30;99.90;;;;;;5084216;28;20937;-71
2021/06/27 03:34:52;;;;;;;12.33;8.40;;;17.30;99.90;;;;;;5086971;28;20433;-70
2021/06/27 03:37:43;;;;;;;11.47;7.70;;;17.40;99.90;;;;;;5082955;28;20447;-71
2021/06/27 03:40:28;;;;;;;10.77;8.20;;;17.40;99.90;;;;;;5082653;28;20481;-71
2021/06/27 03:43:14;;;;;;;14.00;8.80;;;17.40;99.90;;;;;;5090821;28;20920;-71
2021/06/27 03:46:00;;;;;;;14.10;8.30;;;17.40;99.90;;;;;;5092617;28;20420;-71
2021/06/27 03:48:46;;;;;;;9.50;8.43;;;17.40;99.90;;;;;;5088239;28;20486;-70
2021/06/27 03:51:33;;;;;;;9.13;8.23;;;17.40;99.90;;;;;;5081260;28;20870;-71
2021/06/27 03:54:19;;;;;;;8.90;7.83;;;17.40;99.90;;;;;;5081616;28;20435;-71
2021/06/27 03:57:06;;;;;;;9.17;8.30;;;17.30;99.90;;;;;;5078250;28;20550;-71
2021/06/27 03:59:52;;;;;;;7.70;6.90;;;17.40;99.90;;;;;;5081579;28;20439;-71
2021/06/27 04:02:38;;;;;;;11.53;8.17;;;17.40;99.90;;;;;;5085338;28;20484;-70
2021/06/27 04:05:24;;;;;;;8.90;7.07;;;17.40;99.90;;;;;;5078363;28;20551;-70
2021/06/27 04:08:11;;;;;;;9.10;7.10;;;17.40;99.90;;;;;;5087428;28;20480;-71
2021/06/27 04:10:58;;;;;;;11.00;8.20;;;17.40;99.90;;;;;;5083479;28;20533;-71
2021/06/27 04:13:44;;;;;;;10.97;8.73;;;17.40;99.90;;;;;;5086295;28;20440;-70
2021/06/27 04:16:30;;;;;;;10.50;8.13;;;17.30;99.90;;;;;;5080844;28;20460;-71
2021/06/27 04:19:16;;;;;;;10.60;8.20;;;17.40;99.90;;;;;;5080697;28;20483;-71
2021/06/27 04:22:01;;;;;;;9.87;8.53;;;17.40;99.90;;;;;;5082381;28;21004;-71
2021/06/27 04:24:48;;;;;;;9.63;7.27;;;17.40;99.90;;;;;;5076121;28;20448;-71
2021/06/27 04:27:34;;;;;;;8.37;7.20;;;17.50;99.90;;;;;;5075367;28;20465;-71
2021/06/27 04:30:20;;;;;;;9.77;7.00;;;17.60;99.90;;;;;;5082397;28;20469;-71
2021/06/27 04:33:07;;;;;;;9.63;7.30;;;17.60;99.90;;;;;;5082177;28;20442;-71
2021/06/27 04:35:53;;;;;;;8.60;7.80;;;17.70;99.90;;;;;;5085985;28;20837;-70
2021/06/27 04:38:39;;;;;;;11.10;7.60;;;17.80;99.90;;;;;;5086432;28;20479;-71
2021/06/27 04:41:26;;;;;;;11.83;7.80;;;17.90;99.90;;;;;;5087809;28;20563;-71
2021/06/27 04:44:12;;;;;;;12.10;7.10;;;18.10;99.90;;;;;;5088248;28;20442;-70
2021/06/27 04:46:58;;;;;;;12.87;8.37;;;18.10;99.90;;;;;;5081627;28;20449;-71
2021/06/27 04:49:43;;;;;;;8.70;7.90;;;18.10;99.90;;;;;;5074625;28;20806;-71
2021/06/27 04:52:29;;;;;;;10.33;7.83;;;18.20;99.90;;;;;;5086283;28;20551;-71
2021/06/27 04:55:15;;;;;;;11.00;7.23;;;18.30;99.90;;;;;;5089439;28;20563;-69
2021/06/27 04:58:02;;;;;;;8.57;7.73;;;18.30;99.90;;;;;;5080751;28;20461;-71
2021/06/27 05:00:47;;;;;;;13.30;7.60;;;18.40;99.90;;;;;;5082582;28;20435;-71
2021/06/27 05:03:33;;;;;;;8.77;7.53;;;18.40;99.90;;;;;;5087904;28;20483;-72
2021/06/27 05:06:19;;;;;;;17.33;8.83;;;18.50;99.90;;;;;;5073446;28;20405;-71
2021/06/27 05:09:05;;;;;;;8.80;7.90;;;18.60;99.90;;;;;;5084061;28;20474;-70
2021/06/27 05:11:50;;;;;;;9.70;8.33;;;18.60;99.90;;;;;;5090107;28;20439;-71
2021/06/27 05:14:37;;;;;;;8.30;7.50;;;18.60;99.90;;;;;;5083377;28;21004;-70
2021/06/27 05:17:23;;;;;;;8.67;7.70;;;18.70;99.90;;;;;;5079235;28;20803;-71
2021/06/27 05:20:09;;;;;;;10.40;8.27;;;18.80;99.90;;;;;;5082539;28;20474;-70
2021/06/27 05:22:55;;;;;;;13.53;7.73;;;18.90;99.90;;;;;;5080484;28;20444;-71
2021/06/27 05:25:41;;;;;;;9.43;7.23;;;18.80;99.90;;;;;;5080180;28;20469;-70
2021/06/27 05:28:27;;;;;;;7.80;7.03;;;18.90;99.90;;;;;;5084707;28;20506;-71
2021/06/27 05:31:14;;;;;;;9.20;8.30;;;18.80;99.90;;;;;;5086865;28;20424;-70
2021/06/27 05:34:00;;;;;;;10.57;8.00;;;18.90;99.90;;;;;;5081427;28;20453;-71
2021/06/27 05:36:46;;;;;;;17.53;8.60;;;18.90;99.90;;;;;;5087458;28;20817;-71
2021/06/27 05:39:31;;;;;;;8.20;7.30;;;19.00;99.90;;;;;;5081604;28;20492;-70
2021/06/27 05:42:18;;;;;;;9.20;7.50;;;19.20;99.90;;;;;;5089014;28;20689;-71
2021/06/27 05:45:04;;;;;;;7.77;6.97;;;19.30;99.90;;;;;;5075496;28;20474;-71
2021/06/27 05:47:51;;;;;;;7.27;6.50;;;19.50;99.90;;;;;;5082301;28;20985;-71
2021/06/27 05:50:37;;;;;;;8.87;6.97;;;19.70;99.90;;;;;;5083099;28;20479;-70
2021/06/27 05:53:23;;;;;;;8.97;8.07;;;19.80;99.90;;;;;;5087690;28;20443;-71
2021/06/27 05:56:12;;;;;;;6.77;6.07;;;19.90;99.90;;;;;;5073163;28;20446;-70
2021/06/27 05:58:57;;;;;;;7.77;7.07;;;20.00;99.90;;;;;;5078904;28;20605;-71
2021/06/27 06:01:43;;;;;;;7.40;6.70;;;20.00;99.90;;;;;;5089039;28;20453;-71
2021/06/27 06:04:30;;;;;;;7.40;6.67;;;20.10;99.90;;;;;;5088613;28;20536;-71
2021/06/27 06:07:16;;;;;;;7.70;6.93;;;20.20;99.90;;;;;;5079081;28;20605;-71
2021/06/27 06:10:01;;;;;;;10.50;7.20;;;20.50;99.90;;;;;;5076256;28;20588;-71
2021/06/27 06:12:47;;;;;;;9.23;6.50;;;20.70;99.90;;;;;;5078881;28;20513;-71
2021/06/27 06:15:33;;;;;;;7.80;6.47;;;21.00;99.90;;;;;;5090767;28;20533;-71
2021/06/27 06:18:19;;;;;;;7.93;6.43;;;21.20;99.90;;;;;;5075482;28;20437;-71
2021/06/27 06:21:06;;;;;;;7.63;6.90;;;21.40;99.90;;;;;;5081864;28;20592;-71
2021/06/27 06:23:51;;;;;;;7.03;6.43;;;21.50;99.90;;;;;;5079178;28;20424;-71
2021/06/27 06:26:37;;;;;;;6.87;6.27;;;21.50;99.90;;;;;;5085023;28;20442;-71
2021/06/27 06:29:22;;;;;;;7.73;5.70;;;21.50;99.90;;;;;;5082169;28;20477;-71
2021/06/27 06:32:09;;;;;;;7.57;6.80;;;21.50;99.90;;;;;;5085934;28;20593;-71
2021/06/27 06:34:54;;;;;;;6.63;5.60;;;21.50;99.90;;;;;;5082331;28;20461;-70
2021/06/27 06:37:41;;;;;;;7.23;6.53;;;21.40;99.90;;;;;;5074685;28;20534;-71
2021/06/27 06:40:27;;;;;;;16.13;6.50;;;21.40;99.90;;;;;;5078797;28;20467;-71
2021/06/27 06:43:13;;;;;;;6.90;6.20;;;21.40;99.90;;;;;;5086779;28;20849;-71
2021/06/27 06:45:58;;;;;;;7.00;6.10;;;21.40;99.90;;;;;;5077145;28;20468;-71
2021/06/27 06:48:45;;;;;;;7.00;6.27;;;21.50;99.90;;;;;;5074157;28;20462;-71
2021/06/27 06:51:31;;;;;;;7.07;6.47;;;21.70;99.90;;;;;;5090835;28;20442;-70
2021/06/27 06:54:18;;;;;;;10.67;6.33;;;21.80;99.90;;;;;;5091765;28;20495;-71
2021/06/27 06:57:04;;;;;;;8.23;6.10;;;21.80;99.90;;;;;;5085871;28;20800;-71
2021/06/27 06:59:50;;;;;;;8.63;6.60;;;21.90;99.90;;;;;;5081300;28;20602;-71
2021/06/27 07:02:36;;;;;;;6.70;5.83;;;22.00;99.90;;;;;;5084476;28;20435;-71
2021/06/27 07:05:22;;;;;;;7.10;6.40;;;22.20;99.90;;;;;;5083151;28;20821;-69
2021/06/27 07:08:08;;;;;;;7.80;7.00;;;22.30;99.90;;;;;;5093039;28;20470;-71
2021/06/27 07:10:55;;;;;;;7.30;6.40;;;22.50;99.90;;;;;;5090603;28;21041;-71
2021/06/27 07:13:41;;;;;;;7.43;6.73;;;22.60;99.90;;;;;;5091828;28;20512;-71
2021/06/27 07:16:27;;;;;;;11.70;5.83;;;22.80;99.90;;;;;;5081128;28;20590;-71
2021/06/27 07:19:12;;;;;;;8.80;6.77;;;22.90;99.90;;;;;;5083395;28;20436;-71
2021/06/27 07:21:58;;;;;;;6.80;6.20;;;22.90;99.90;;;;;;5081348;28;20455;-71
2021/06/27 07:24:44;;;;;;;7.10;6.40;;;23.00;99.90;;;;;;5082490;28;20459;-71
2021/06/27 07:27:31;;;;;;;7.33;6.63;;;23.00;99.90;;;;;;5085807;28;21038;-71
2021/06/27 07:30:17;;;;;;;5.93;5.33;;;23.20;99.90;;;;;;5085895;28;20465;-71
2021/06/27 07:33:03;;;;;;;7.43;6.30;;;23.20;99.90;;;;;;5085089;28;20530;-71
2021/06/27 07:35:49;;;;;;;8.00;6.80;;;23.20;99.90;;;;;;5082372;28;20450;-70
2021/06/27 07:38:35;;;;;;;7.13;6.43;;;23.20;99.90;;;;;;5080084;28;20456;-71
2021/06/27 07:41:20;;;;;;;10.50;7.17;;;23.20;99.90;;;;;;5104973;22;20503;-72
2021/06/27 07:44:08;;;;;;;11.20;6.00;;;23.20;99.90;;;;;;5092656;28;20451;-73
2021/06/27 07:46:53;;;;;;;8.87;6.00;;;23.30;99.90;;;;;;5091686;28;20455;-72
2021/06/27 07:49:39;;;;;;;6.40;5.80;;;23.40;99.90;;;;;;5090304;28;20470;-72
2021/06/27 07:52:24;;;;;;;7.00;6.30;;;23.40;99.90;;;;;;5092875;28;20473;-73
2021/06/27 07:55:10;;;;;;;7.33;6.20;;;23.40;99.90;;;;;;5072986;28;20497;-72
2021/06/27 07:57:56;;;;;;;6.30;5.70;;;23.50;99.90;;;;;;5087562;28;20461;-73
2021/06/27 08:00:43;;;;;;;6.80;6.17;;;23.60;99.90;;;;;;5091037;28;20589;-72
2021/06/27 08:03:30;;;;;;;9.13;6.90;;;23.80;99.90;;;;;;5089796;28;20936;-72
2021/06/27 08:06:15;;;;;;;6.97;6.10;;;23.90;99.90;;;;;;5090216;28;20432;-73
2021/06/27 08:09:01;;;;;;;8.60;5.77;;;24.00;99.90;;;;;;5084251;28;20831;-73
2021/06/27 08:11:47;;;;;;;7.33;5.60;;;24.10;99.90;;;;;;5086743;28;20835;-74
2021/06/27 08:14:32;;;;;;;6.17;5.57;;;24.20;99.90;;;;;;5091084;28;20570;-73
2021/06/27 08:17:19;;;;;;;7.23;6.30;;;24.20;99.90;;;;;;5090425;28;21073;-74
2021/06/27 08:20:06;;;;;;;13.33;5.40;;;24.20;99.90;;;;;;5092975;28;20459;-73
2021/06/27 08:22:52;;;;;;;6.40;5.63;;;24.20;99.90;;;;;;5089094;28;20582;-71
2021/06/27 08:25:38;;;;;;;6.73;5.43;;;24.30;99.90;;;;;;5090354;28;20443;-71
2021/06/27 08:28:24;;;;;;;6.00;5.33;;;24.40;99.90;;;;;;5089579;28;20440;-71
2021/06/27 08:31:09;;;;;;;6.60;5.60;;;24.40;99.90;;;;;;5080305;28;21003;-71
2021/06/27 08:33:56;;;;;;;10.03;5.60;;;24.50;99.90;;;;;;5081505;28;20474;-71
2021/06/27 08:36:43;;;;;;;6.17;5.57;;;24.60;99.90;;;;;;5083909;28;20505;-71
2021/06/27 08:39:28;;;;;;;5.43;4.93;;;24.60;99.90;;;;;;5091763;28;20778;-71
2021/06/27 08:42:18;;;;;;;5.87;5.00;;;24.80;99.90;;;;;;5086799;28;20444;-71
2021/06/27 08:45:05;;;;;;;6.37;5.50;;;24.80;98.80;;;;;;5092177;28;20423;-71
2021/06/27 08:47:53;;;;;;;7.20;4.80;;;24.90;97.00;;;;;;5084604;28;20581;-71
2021/06/27 08:50:41;;;;;;;9.03;5.50;;;24.90;97.10;;;;;;5090902;28;20459;-71
2021/06/27 08:53:26;;;;;;;5.87;5.17;;;25.00;95.50;;;;;;5081888;28;20460;-70
2021/06/27 08:56:13;;;;;;;5.27;4.40;;;25.10;94.90;;;;;;5085189;28;21086;-71
2021/06/27 08:58:58;;;;;;;5.47;4.93;;;25.20;92.70;;;;;;5092461;28;20446;-71
2021/06/27 09:01:44;;;;;;;4.93;4.30;;;25.30;82.50;;;;;;5090705;28;20447;-71
2021/06/27 09:04:31;;;;;;;4.87;4.37;;;25.30;82.10;;;;;;5088349;28;20459;-71
2021/06/27 09:07:33;;;;;;;6.50;4.40;;;25.40;85.10;;;;;;5084301;28;20443;-71
2021/06/27 09:10:26;;;;;;;4.50;4.00;;;25.50;81.20;;;;;;5090595;28;20470;-71
2021/06/27 09:13:12;;;;;;;5.23;4.33;;;25.50;75.40;;;;;;5087691;28;20578;-71
2021/06/27 09:15:58;;;;;;;4.53;3.97;;;25.50;79.50;;;;;;5089402;28;20454;-71
2021/06/27 09:18:43;;;;;;;5.90;4.30;;;25.70;78.40;;;;;;5087091;28;20486;-71
2021/06/27 09:21:30;;;;;;;4.50;4.10;;;25.70;77.70;;;;;;5090828;28;20532;-71
2021/06/27 09:24:27;;;;;;;4.00;3.60;;;25.70;75.40;;;;;;5091236;28;20587;-71
2021/06/27 09:27:17;;;;;;;4.00;3.60;;;25.80;76.30;;;;;;5091147;28;20506;-71
2021/06/27 09:30:14;;;;;;;4.83;4.33;;;25.80;72.20;;;;;;5087926;28;20478;-71
2021/06/27 09:33:03;;;;;;;5.17;3.83;;;25.80;76.90;;;;;;5087591;28;20533;-71
2021/06/27 09:36:00;;;;;;;4.10;3.40;;;25.90;74.10;;;;;;5087732;28;20452;-71
2021/06/27 09:38:49;;;;;;;4.50;4.10;;;25.80;71.60;;;;;;5080188;28;20448;-71
2021/06/27 09:41:37;;;;;;;6.43;3.70;;;25.70;74.40;;;;;;5082840;28;20826;-70
2021/06/27 09:44:23;;;;;;;5.20;4.70;;;25.60;65.10;;;;;;5091511;28;20440;-70
2021/06/27 09:47:09;;;;;;;4.97;4.33;;;25.70;66.40;;;;;;5091054;28;20431;-71
2021/06/27 09:49:55;;;;;;;6.10;5.10;;;25.80;69.60;;;;;;5090624;28;21008;-72
2021/06/27 09:52:41;;;;;;;4.60;4.20;;;26.00;74.30;;;;;;5085589;28;20459;-71
2021/06/27 09:55:27;;;;;;;6.83;4.20;;;26.20;69.70;;;;;;5090420;28;20976;-71
2021/06/27 09:58:18;;;;;;;9.03;3.60;;;26.40;71.30;;;;;;5083850;28;20442;-72
2021/06/27 10:01:18;;;;;;;5.40;4.77;;;26.50;62.10;;;;;;5089038;28;20456;-73
2021/06/27 10:04:06;;;;;;;5.07;3.80;;;26.60;66.80;;;;;;5085145;28;21083;-72
2021/06/27 10:06:54;;;;;;;4.40;4.00;;;26.80;61.90;;;;;;5086702;28;20446;-72
2021/06/27 10:09:41;;;;;;;4.40;3.50;;;26.70;57.10;;;;;;5086232;28;20491;-72
2021/06/27 10:12:38;;;;;;;5.47;4.27;;;26.70;64.70;;;;;;5090473;28;20945;-72
2021/06/27 10:15:25;;;;;;;4.20;3.40;;;26.80;61.80;;;;;;5090851;28;20833;-72
2021/06/27 10:18:12;;;;;;;3.83;3.33;;;26.90;54.90;;;;;;5086809;28;20451;-73
2021/06/27 10:20:57;;;;;;;5.70;3.07;;;27.00;51.90;;;;;;5086317;28;20437;-72
2021/06/27 10:23:44;;;;;;;3.87;3.20;;;27.10;54.10;;;;;;5089746;28;20451;-72
2021/06/27 10:26:30;;;;;;;3.83;3.40;;;27.20;52.00;;;;;;5088894;28;20528;-72
2021/06/27 10:29:19;;;;;;;3.97;3.57;;;27.10;51.30;;;;;;5096148;28;20464;-72
2021/06/27 10:32:07;;;;;;;3.90;3.50;;;27.20;56.00;;;;;;5084281;28;20885;-72
2021/06/27 10:34:54;;;;;;;4.60;3.47;;;27.30;49.80;;;;;;5085872;28;20956;-72
2021/06/27 10:37:42;;;;;;;4.70;3.50;;;27.20;52.60;;;;;;5076690;28;20446;-72
2021/06/27 10:40:28;;;;;;;4.33;3.80;;;27.20;54.90;;;;;;5085046;28;20534;-72
2021/06/27 10:43:14;;;;;;;3.63;3.17;;;27.30;53.30;;;;;;5090846;28;20444;-72
2021/06/27 10:46:02;;;;;;;3.97;3.57;;;27.20;52.20;;;;;;5090688;28;20498;-72
2021/06/27 10:48:49;;;;;;;4.20;3.20;;;27.30;53.10;;;;;;5091216;28;20848;-72
2021/06/27 10:52:01;;;;;;;3.83;3.03;;;27.30;58.30;;;;;;5090515;28;20984;-72
2021/06/27 10:55:22;;;;;;;3.40;2.90;;;27.50;56.20;;;;;;5086914;28;20440;-72
2021/06/27 10:58:09;;;;;;;4.70;3.67;;;27.70;53.60;;;;;;5090375;28;20439;-72
2021/06/27 11:01:04;;;;;;;4.30;3.50;;;27.70;48.90;;;;;;5085714;28;20467;-72
2021/06/27 11:03:51;;;;;;;4.07;3.60;;;27.50;50.90;;;;;;5093323;28;20451;-72
2021/06/27 11:06:39;;;;;;;4.60;4.13;;;27.50;50.40;;;;;;5088585;28;20481;-72
2021/06/27 11:09:28;;;;;;;4.60;4.10;;;27.60;51.10;;;;;;5092052;28;20469;-73
2021/06/27 11:12:13;;;;;;;4.87;3.63;;;27.80;55.00;;;;;;5089282;28;20447;-72
2021/06/27 11:15:14;;;;;;;4.20;3.73;;;27.90;48.30;;;;;;5087926;28;21053;-72
2021/06/27 11:18:03;;;;;;;3.73;3.33;;;28.00;50.70;;;;;;5090120;28;20443;-72
2021/06/27 11:21:09;;;;;;;3.80;3.13;;;28.00;48.80;;;;;;5086697;28;20443;-72
2021/06/27 11:24:06;;;;;;;3.80;3.33;;;28.00;49.80;;;;;;5088043;28;20540;-72
2021/06/27 11:26:58;;;;;;;5.50;3.40;;;28.00;45.80;;;;;;5086218;28;20461;-72
2021/06/27 11:29:49;;;;;;;4.47;3.60;;;27.90;47.20;;;;;;5091448;28;20525;-72
2021/06/27 11:32:38;;;;;;;4.30;3.80;;;27.90;50.60;;;;;;5090462;28;20450;-72
2021/06/27 11:35:49;;;;;;;4.50;3.67;;;27.90;46.20;;;;;;5091779;28;21109;-72
2021/06/27 11:38:44;;;;;;;4.00;3.30;;;27.80;48.20;;;;;;5083900;28;20437;-72
2021/06/27 11:41:37;;;;;;;5.80;3.20;;;27.70;47.10;;;;;;5091655;28;20483;-72
2021/06/27 11:44:23;;;;;;;5.40;3.43;;;27.70;48.80;;;;;;5091853;28;20431;-72
2021/06/27 11:47:22;;;;;;;3.90;3.13;;;27.60;52.80;;;;;;5092053;28;20526;-72
2021/06/27 11:50:15;;;;;;;4.03;3.10;;;27.60;53.30;;;;;;5089266;28;20472;-72
2021/06/27 11:53:03;;;;;;;5.27;3.20;;;27.50;50.20;;;;;;5088111;28;20447;-72
2021/06/27 11:56:04;;;;;;;4.27;3.30;;;27.50;48.20;;;;;;5086704;28;20798;-71
2021/06/27 11:58:49;;;;;;;4.00;3.10;;;27.50;47.60;;;;;;5085616;28;20432;-71
2021/06/27 12:01:35;;;;;;;4.90;3.77;;;27.50;51.20;;;;;;5084005;28;20462;-72
2021/06/27 12:04:39;;;;;;;7.20;3.83;;;27.50;51.70;;;;;;5082444;28;20440;-73
2021/06/27 12:07:26;;;;;;;5.30;4.37;;;27.50;47.00;;;;;;5090365;28;20586;-72
2021/06/27 12:10:22;;;;;;;5.23;4.30;;;27.50;51.00;;;;;;5085599;28;20471;-71
2021/06/27 12:13:10;;;;;;;5.20;3.67;;;27.50;48.70;;;;;;5089598;28;21146;-71
2021/06/27 12:15:58;;;;;;;4.00;3.60;;;27.50;51.40;;;;;;5084129;28;20595;-71
2021/06/27 12:18:43;;;;;;;6.33;3.93;;;27.50;50.80;;;;;;5089145;28;20923;-71
2021/06/27 12:21:29;;;;;;;3.80;3.30;;;27.60;51.60;;;;;;5086123;28;20466;-71
2021/06/27 12:24:18;;;;;;;4.30;3.37;;;27.60;54.10;;;;;;5087318;28;20464;-71
2021/06/27 12:27:10;;;;;;;4.73;4.13;;;27.60;53.80;;;;;;5089716;28;20448;-71
2021/06/27 12:29:57;;;;;;;4.23;3.50;;;27.50;49.70;;;;;;5082879;28;20485;-71
2021/06/27 12:33:01;;;;;;;4.90;4.23;;;27.60;52.70;;;;;;5088905;28;20436;-71
2021/06/27 12:35:50;;;;;;;4.30;3.43;;;27.80;54.40;;;;;;5086067;28;20448;-71
2021/06/27 12:38:37;;;;;;;4.60;4.20;;;28.10;59.00;;;;;;5080940;28;20444;-71
2021/06/27 12:41:25;;;;;;;5.90;4.10;;;28.20;51.10;;;;;;5089545;28;20593;-71
2021/06/27 12:44:13;;;;;;;4.43;4.03;;;28.40;51.50;;;;;;5086989;28;20445;-73
2021/06/27 12:47:00;;;;;;;4.97;3.77;;;28.50;50.40;;;;;;5090029;28;20479;-73
2021/06/27 12:49:50;;;;;;;5.20;4.07;;;28.60;49.50;;;;;;5091330;28;20481;-73
2021/06/27 12:52:35;;;;;;;5.10;4.33;;;28.70;49.90;;;;;;5086856;28;21034;-73
2021/06/27 12:55:21;;;;;;;4.50;3.87;;;28.80;47.70;;;;;;5080989;28;20519;-72
2021/06/27 12:58:06;;;;;;;5.03;4.40;;;28.90;50.10;;;;;;5087172;28;20821;-72
2021/06/27 13:01:02;;;;;;;5.73;4.17;;;29.10;48.90;;;;;;5089289;28;20789;-72
2021/06/27 13:03:58;;;;;;;8.00;4.43;;;29.30;50.10;;;;;;5086789;28;20449;-72
2021/06/27 13:06:53;;;;;;;4.37;3.70;;;29.50;46.90;;;;;;5089859;28;20441;-72
2021/06/27 13:09:42;;;;;;;6.27;4.67;;;29.60;48.60;;;;;;5080138;28;20470;-72
2021/06/27 13:12:28;;;;;;;4.67;4.07;;;29.70;46.00;;;;;;5090794;28;20962;-72
2021/06/27 13:15:16;;;;;;;4.80;4.17;;;29.60;45.00;;;;;;5084183;28;20454;-72
2021/06/27 13:18:04;;;;;;;4.20;3.73;;;29.70;48.70;;;;;;5090452;28;20445;-72
2021/06/27 13:20:53;;;;;;;4.50;3.80;;;29.70;51.10;;;;;;5091709;28;20422;-72
2021/06/27 13:23:38;;;;;;;7.50;4.20;;;29.90;44.40;;;;;;5086391;28;20440;-72
2021/06/27 13:26:24;;;;;;;5.20;3.80;;;30.00;45.00;;;;;;5082441;28;20448;-72
2021/06/27 13:29:20;;;;;;;11.43;4.37;;;30.10;47.50;;;;;;5083868;28;20884;-72
2021/06/27 13:32:24;;;;;;;4.40;4.00;;;30.10;47.00;;;;;;5089117;28;20509;-73
2021/06/27 13:35:29;;;;;;;4.30;3.80;;;30.10;48.80;;;;;;5091044;28;20434;-72
2021/06/27 13:38:16;;;;;;;4.70;3.80;;;30.00;47.00;;;;;;5085627;28;20930;-72
2021/06/27 13:41:04;;;;;;;5.00;4.47;;;29.80;46.70;;;;;;5099202;22;20940;-71
2021/06/27 13:43:51;;;;;;;4.43;4.03;;;29.60;47.40;;;;;;5082516;28;20968;-72
2021/06/27 13:46:37;;;;;;;4.23;3.80;;;29.40;49.00;;;;;;5075873;28;20495;-72
2021/06/27 13:49:23;;;;;;;4.10;3.43;;;29.10;48.20;;;;;;5085568;28;20937;-73
2021/06/27 13:52:09;;;;;;;5.50;3.73;;;29.00;50.40;;;;;;5080640;28;20543;-73
2021/06/27 13:54:56;;;;;;;5.23;4.73;;;28.90;50.10;;;;;;5078514;28;20454;-73
2021/06/27 13:57:42;;;;;;;4.77;4.20;;;28.80;56.60;;;;;;5081441;28;20518;-72
2021/06/27 14:00:28;;;;;;;4.53;3.70;;;28.70;57.00;;;;;;5074545;28;20836;-72
2021/06/27 14:03:14;;;;;;;6.07;4.00;;;28.60;52.50;;;;;;5088851;28;20808;-71
2021/06/27 14:05:59;;;;;;;5.67;4.10;;;28.60;54.50;;;;;;5081377;28;20447;-71
2021/06/27 14:08:46;;;;;;;4.20;3.80;;;28.50;53.90;;;;;;5080558;28;20444;-71
2021/06/27 14:11:35;;;;;;;4.60;4.20;;;28.50;60.80;;;;;;5077573;28;20907;-74
2021/06/27 14:14:21;;;;;;;6.50;3.70;;;28.50;61.10;;;;;;5077247;28;20954;-70
2021/06/27 14:17:07;;;;;;;8.50;5.17;;;28.40;53.70;;;;;;5082428;28;20956;-71
2021/06/27 14:19:53;;;;;;;4.67;4.27;;;28.50;56.80;;;;;;5080019;28;20445;-72
2021/06/27 14:22:39;;;;;;;9.90;3.93;;;28.50;57.10;;;;;;5083038;28;20566;-71
2021/06/27 14:25:25;;;;;;;4.60;3.57;;;28.70;56.20;;;;;;5080576;28;20793;-71
2021/06/27 14:28:12;;;;;;;4.43;4.03;;;28.70;51.40;;;;;;5078075;28;20446;-72